Time;durP1;ratioP1;P1;durP2;ratioP2;P2;SDS_P1;SDS_P2;PMS_P1;PMS_P2;Temp;Humidity;BMP_temperature;BMP_pressure;BME280_temperature;BME280_humidity;BME280_pressure;Samples;Min_cycle;Max_cycle;Signal;HPM_P1;HPM_P2
2021/01/22 00:02:03;;;;;;;0.40;0.30;;;6.70;90.70;;;;;;5023535;28;20120;-80
2021/01/22 00:04:29;;;;;;;0.50;0.30;;;6.40;90.80;;;;;;5023603;28;20544;-78
2021/01/22 00:06:55;;;;;;;0.20;0.20;;;6.20;90.90;;;;;;5013089;28;20434;-78
2021/01/22 00:09:21;;;;;;;0.40;0.30;;;6.10;91.10;;;;;;5009811;28;20115;-77
2021/01/22 00:11:47;;;;;;;0.40;0.30;;;6.00;91.00;;;;;;5045561;28;20505;-77
2021/01/22 00:14:13;;;;;;;0.45;0.30;;;5.90;91.10;;;;;;5040865;28;20565;-76
2021/01/22 00:16:39;;;;;;;0.52;0.35;;;5.80;91.10;;;;;;5040268;28;20086;-76
2021/01/22 00:19:05;;;;;;;0.47;0.47;;;5.70;91.10;;;;;;5042589;28;20128;-76
2021/01/22 00:21:31;;;;;;;0.60;0.50;;;5.70;91.10;;;;;;5052928;28;20510;-75
2021/01/22 00:23:57;;;;;;;0.47;0.28;;;5.50;91.10;;;;;;5074986;28;20171;-75
2021/01/22 00:26:23;;;;;;;0.85;0.30;;;5.50;91.10;;;;;;5072261;28;20070;-76
2021/01/22 00:28:49;;;;;;;0.20;0.20;;;5.40;91.10;;;;;;5075524;28;20052;-78
2021/01/22 00:31:15;;;;;;;0.85;0.40;;;5.30;91.10;;;;;;5048067;28;20029;-78
2021/01/22 00:33:40;;;;;;;1.27;0.30;;;5.30;91.10;;;;;;5069766;28;20551;-78
2021/01/22 00:36:06;;;;;;;0.45;0.35;;;5.30;91.10;;;;;;5092724;28;20043;-79
2021/01/22 00:38:32;;;;;;;0.40;0.40;;;5.20;91.10;;;;;;5087901;28;20114;-77
2021/01/22 00:40:58;;;;;;;0.30;0.30;;;5.20;91.00;;;;;;5099750;28;20185;-77
2021/01/22 00:43:24;;;;;;;0.28;0.28;;;5.20;91.10;;;;;;5120066;28;20054;-76
2021/01/22 00:45:50;;;;;;;0.30;0.30;;;5.10;91.10;;;;;;5117817;28;20513;-76
2021/01/22 00:48:15;;;;;;;0.60;0.40;;;5.00;91.10;;;;;;5118111;28;20040;-76
2021/01/22 00:50:41;;;;;;;0.20;0.20;;;4.90;91.10;;;;;;5099006;28;20051;-76
2021/01/22 00:53:07;;;;;;;0.30;0.30;;;4.90;91.10;;;;;;5116440;28;20040;-76
2021/01/22 00:55:32;;;;;;;0.20;0.20;;;4.80;91.10;;;;;;5118744;28;20065;-78
2021/01/22 00:57:58;;;;;;;0.30;0.30;;;4.60;91.10;;;;;;5104823;28;20059;-76
2021/01/22 01:00:24;;;;;;;0.38;0.28;;;4.60;91.10;;;;;;5120046;28;20039;-76
2021/01/22 01:02:49;;;;;;;0.75;0.32;;;4.60;91.10;;;;;;5098911;28;20064;-76
2021/01/22 01:05:15;;;;;;;0.65;0.50;;;4.50;91.10;;;;;;5109341;28;20123;-76
2021/01/22 01:07:41;;;;;;;0.55;0.40;;;4.40;91.20;;;;;;5121668;28;20055;-77
2021/01/22 01:10:08;;;;;;;0.30;0.30;;;4.30;91.20;;;;;;5099086;28;20131;-76
2021/01/22 01:12:34;;;;;;;0.45;0.40;;;4.40;91.20;;;;;;5097695;28;20367;-77
2021/01/22 01:15:00;;;;;;;0.82;0.50;;;4.40;91.20;;;;;;5096048;28;20039;-76
2021/01/22 01:17:25;;;;;;;0.30;0.20;;;4.30;91.10;;;;;;5103683;28;20134;-77
2021/01/22 01:19:51;;;;;;;0.50;0.30;;;4.40;91.20;;;;;;5123628;28;20043;-76
2021/01/22 01:22:17;;;;;;;0.55;0.40;;;4.30;91.10;;;;;;5105933;28;20035;-77
2021/01/22 01:24:42;;;;;;;0.30;0.30;;;4.50;91.10;;;;;;5134196;28;20047;-77
2021/01/22 01:27:08;;;;;;;0.28;0.28;;;4.40;91.10;;;;;;5127417;28;20040;-76
2021/01/22 01:29:34;;;;;;;0.38;0.38;;;4.40;91.10;;;;;;5130602;28;20024;-76
2021/01/22 01:31:59;;;;;;;0.20;0.20;;;4.30;91.00;;;;;;5131201;28;20515;-77
2021/01/22 01:34:25;;;;;;;0.45;0.30;;;4.40;91.10;;;;;;5106269;28;20050;-78
2021/01/22 01:36:51;;;;;;;0.30;0.30;;;4.40;91.00;;;;;;5100217;28;20043;-77
2021/01/22 01:39:17;;;;;;;0.30;0.30;;;4.40;91.00;;;;;;5122815;28;20102;-77
2021/01/22 01:41:42;;;;;;;0.82;0.30;;;4.40;91.00;;;;;;5126908;28;20036;-77
2021/01/22 01:44:08;;;;;;;0.85;0.30;;;4.30;91.00;;;;;;5119656;28;20032;-77
2021/01/22 01:46:34;;;;;;;0.20;0.20;;;4.30;91.00;;;;;;5081753;28;20043;-78
2021/01/22 01:49:01;;;;;;;0.45;0.40;;;4.40;91.00;;;;;;5116529;28;20040;-78
2021/01/22 01:51:27;;;;;;;0.57;0.47;;;4.30;91.00;;;;;;5080795;28;20092;-77
2021/01/22 01:53:54;;;;;;;0.60;0.47;;;4.30;91.00;;;;;;5097882;28;20032;-78
2021/01/22 01:56:21;;;;;;;0.40;0.40;;;4.40;91.00;;;;;;5064294;28;20040;-78
2021/01/22 01:58:47;;;;;;;1.27;0.63;;;4.30;91.00;;;;;;5113558;28;20042;-77
2021/01/22 02:01:16;;;;;;;1.23;0.70;;;4.30;90.90;;;;;;5113564;28;20032;-78
2021/01/22 02:03:42;;;;;;;0.50;0.50;;;4.40;90.90;;;;;;5114519;28;20120;-77
2021/01/22 02:06:08;;;;;;;0.50;0.50;;;4.30;90.90;;;;;;5113577;28;20036;-77
2021/01/22 02:08:35;;;;;;;0.90;0.60;;;4.30;90.90;;;;;;5113113;28;20043;-76
2021/01/22 02:11:02;;;;;;;1.10;0.88;;;4.50;90.90;;;;;;5113208;28;20088;-76
2021/01/22 02:13:30;;;;;;;1.58;0.73;;;4.30;90.90;;;;;;5094903;28;20039;-76
2021/01/22 02:15:57;;;;;;;0.70;0.65;;;4.20;90.80;;;;;;5111901;28;20036;-76
2021/01/22 02:18:24;;;;;;;1.70;0.93;;;4.30;90.90;;;;;;5113111;28;20073;-76
2021/01/22 02:21:10;;;;;;;0.95;0.73;;;4.30;90.90;;;;;;5113433;28;20126;-77
2021/01/22 02:23:40;;;;;;;1.10;0.80;;;4.30;90.90;;;;;;5113377;28;20050;-77
2021/01/22 02:26:31;;;;;;;1.55;0.90;;;4.40;90.90;;;;;;5111706;28;20522;-78
2021/01/22 02:29:06;;;;;;;1.50;0.90;;;4.40;90.90;;;;;;5094645;28;20044;-79
2021/01/22 02:31:40;;;;;;;2.80;1.08;;;4.40;90.90;;;;;;5080221;28;20031;-78
2021/01/22 02:34:25;;;;;;;1.95;0.95;;;4.30;90.90;;;;;;5079425;28;20075;-78
2021/01/22 02:36:58;;;;;;;2.28;1.20;;;4.20;90.80;;;;;;5049873;28;20056;-75
2021/01/22 02:39:27;;;;;;;1.70;0.88;;;4.30;90.90;;;;;;5033163;28;20044;-76
2021/01/22 02:41:56;;;;;;;1.75;1.02;;;4.30;90.90;;;;;;5050562;28;20456;-79
2021/01/22 02:44:23;;;;;;;2.50;1.30;;;4.30;90.90;;;;;;5058794;28;20049;-78
2021/01/22 02:46:49;;;;;;;2.72;1.25;;;4.30;90.90;;;;;;5045281;28;20052;-78
2021/01/22 02:49:15;;;;;;;3.33;1.52;;;4.10;90.90;;;;;;5021545;28;20041;-78
2021/01/22 02:51:41;;;;;;;2.17;1.08;;;4.20;90.90;;;;;;5033274;28;20051;-77
2021/01/22 02:54:07;;;;;;;2.42;1.25;;;4.10;90.90;;;;;;5033890;28;20085;-76
2021/01/22 02:56:49;;;;;;;2.63;1.33;;;4.20;90.90;;;;;;5000314;28;20091;-76
2021/01/22 02:59:36;;;;;;;3.50;1.50;;;4.20;91.00;;;;;;5032964;28;20049;-78
2021/01/22 03:02:13;;;;;;;2.65;1.40;;;4.20;91.00;;;;;;5033024;28;20111;-77
2021/01/22 03:04:41;;;;;;;3.22;1.70;;;4.10;90.90;;;;;;5049821;28;20055;-76
2021/01/22 03:07:13;;;;;;;3.13;1.73;;;4.20;91.00;;;;;;5046589;28;20039;-77
2021/01/22 03:09:43;;;;;;;2.25;1.42;;;4.20;91.00;;;;;;5112972;28;20036;-76
2021/01/22 03:12:11;;;;;;;2.97;1.73;;;4.10;91.00;;;;;;5113960;28;20035;-77
2021/01/22 03:14:40;;;;;;;3.40;1.80;;;4.00;91.00;;;;;;5094692;28;20043;-75
2021/01/22 03:17:06;;;;;;;3.45;1.77;;;4.00;91.00;;;;;;5092070;28;20043;-75
2021/01/22 03:19:48;;;;;;;3.38;1.75;;;4.00;91.00;;;;;;5077216;28;20512;-75
2021/01/22 03:22:15;;;;;;;3.50;1.80;;;4.10;91.10;;;;;;5094262;28;20469;-75
2021/01/22 03:24:41;;;;;;;3.22;1.70;;;4.00;91.10;;;;;;5112069;28;20130;-75
2021/01/22 03:27:08;;;;;;;3.33;1.73;;;4.00;91.10;;;;;;5112646;28;20496;-73
2021/01/22 03:29:35;;;;;;;2.40;1.48;;;4.00;91.10;;;;;;5118216;28;20039;-74
2021/01/22 03:32:02;;;;;;;3.20;1.50;;;4.00;91.10;;;;;;5118829;28;20375;-75
2021/01/22 03:34:27;;;;;;;1.92;1.23;;;4.00;91.10;;;;;;5116026;28;20048;-74
2021/01/22 03:36:57;;;;;;;1.75;1.10;;;4.00;91.10;;;;;;5115530;28;20511;-74
2021/01/22 03:39:24;;;;;;;1.80;1.25;;;4.00;91.10;;;;;;5114384;28;20537;-75
2021/01/22 03:41:50;;;;;;;1.98;1.20;;;4.00;91.10;;;;;;5115577;28;20043;-75
2021/01/22 03:44:16;;;;;;;1.58;1.08;;;4.10;91.10;;;;;;5096983;28;20048;-74
2021/01/22 03:46:43;;;;;;;2.08;1.25;;;4.00;91.00;;;;;;5115831;28;20096;-74
2021/01/22 03:49:10;;;;;;;1.42;0.90;;;4.10;91.00;;;;;;5097402;28;20039;-75
2021/01/22 03:51:36;;;;;;;2.35;1.08;;;4.10;91.10;;;;;;5115787;28;20062;-75
2021/01/22 03:54:02;;;;;;;1.55;0.85;;;4.00;91.00;;;;;;5115429;28;20487;-75
2021/01/22 03:56:27;;;;;;;1.35;0.80;;;4.00;91.00;;;;;;5115495;28;20122;-75
2021/01/22 03:58:53;;;;;;;1.20;0.65;;;4.00;91.00;;;;;;5115613;28;20567;-75
2021/01/22 04:01:19;;;;;;;1.65;1.00;;;4.00;91.10;;;;;;5115091;28;20042;-75
2021/01/22 04:03:46;;;;;;;1.95;0.90;;;4.00;91.10;;;;;;5115581;28;20065;-75
2021/01/22 04:06:12;;;;;;;0.77;0.60;;;3.90;91.10;;;;;;5115496;28;20108;-77
2021/01/22 04:08:37;;;;;;;1.13;0.55;;;3.90;91.10;;;;;;5097501;28;20036;-76
2021/01/22 04:11:03;;;;;;;1.02;0.60;;;3.90;91.10;;;;;;5096788;28;20368;-76
2021/01/22 04:13:29;;;;;;;1.45;0.70;;;4.00;91.10;;;;;;5115374;28;20036;-76
2021/01/22 04:15:54;;;;;;;0.30;0.30;;;4.00;91.10;;;;;;5115216;28;20444;-77
2021/01/22 04:18:20;;;;;;;0.98;0.50;;;4.00;91.10;;;;;;5096917;28;20035;-76
2021/01/22 04:20:46;;;;;;;0.50;0.50;;;4.00;91.10;;;;;;5114836;28;20092;-76
2021/01/22 04:23:11;;;;;;;0.55;0.50;;;4.00;91.10;;;;;;5115391;28;20383;-76
2021/01/22 04:25:37;;;;;;;0.50;0.50;;;4.00;91.10;;;;;;5114707;28;20067;-75
2021/01/22 04:28:03;;;;;;;0.73;0.50;;;4.10;91.10;;;;;;5115129;28;20048;-74
2021/01/22 04:30:28;;;;;;;0.60;0.50;;;4.00;91.00;;;;;;5115400;28;20032;-75
2021/01/22 04:32:54;;;;;;;1.40;0.60;;;4.00;91.10;;;;;;5115297;28;20499;-75
2021/01/22 04:35:20;;;;;;;0.40;0.40;;;4.00;91.10;;;;;;5114775;28;20433;-77
2021/01/22 04:37:45;;;;;;;1.02;0.80;;;3.90;91.10;;;;;;5114763;28;20089;-74
2021/01/22 04:40:12;;;;;;;1.48;0.82;;;3.90;91.10;;;;;;5114761;28;20050;-74
2021/01/22 04:42:41;;;;;;;1.63;0.80;;;3.90;91.10;;;;;;5113884;28;20126;-74
2021/01/22 04:45:10;;;;;;;0.85;0.70;;;3.90;91.10;;;;;;5096366;28;20452;-74
2021/01/22 04:47:38;;;;;;;0.82;0.60;;;3.90;91.10;;;;;;5114966;28;20069;-74
2021/01/22 04:50:05;;;;;;;0.93;0.60;;;3.90;91.10;;;;;;5114622;28;20123;-74
2021/01/22 04:52:32;;;;;;;0.80;0.60;;;3.90;91.10;;;;;;5114578;28;20481;-74
2021/01/22 04:55:00;;;;;;;1.67;0.43;;;3.90;91.10;;;;;;5114955;28;20114;-74
2021/01/22 04:57:29;;;;;;;1.00;0.70;;;3.90;91.10;;;;;;5114828;28;20118;-74
2021/01/22 04:59:56;;;;;;;1.13;0.68;;;4.00;91.10;;;;;;5114235;28;20535;-74
2021/01/22 05:02:22;;;;;;;0.88;0.70;;;4.00;91.10;;;;;;5114944;28;20043;-74
2021/01/22 05:04:50;;;;;;;1.67;0.90;;;3.90;91.10;;;;;;5114572;28;20093;-74
2021/01/22 05:07:20;;;;;;;2.70;1.05;;;4.00;91.40;;;;;;5096254;28;20063;-74
2021/01/22 05:09:45;;;;;;;1.17;0.90;;;3.90;91.10;;;;;;5114801;28;20040;-74
2021/01/22 05:12:11;;;;;;;2.30;1.27;;;4.00;91.10;;;;;;5114771;28;20051;-74
2021/01/22 05:14:37;;;;;;;1.75;1.15;;;4.00;91.10;;;;;;5114212;28;20046;-74
2021/01/22 05:17:06;;;;;;;2.60;1.40;;;4.00;91.10;;;;;;5114358;28;20402;-74
2021/01/22 05:19:34;;;;;;;2.67;1.60;;;4.00;91.10;;;;;;5096029;28;20043;-74
2021/01/22 05:22:01;;;;;;;2.63;1.63;;;4.00;91.10;;;;;;5114689;28;20052;-74
2021/01/22 05:24:28;;;;;;;3.60;2.10;;;4.00;91.00;;;;;;5112850;28;20040;-74
2021/01/22 05:27:06;;;;;;;3.45;1.92;;;4.00;91.00;;;;;;5113952;28;20047;-74
2021/01/22 05:29:34;;;;;;;3.75;2.13;;;4.10;91.00;;;;;;5094099;28;20491;-74
2021/01/22 05:32:00;;;;;;;5.05;2.65;;;4.10;91.00;;;;;;5114317;28;20036;-75
2021/01/22 05:34:43;;;;;;;4.15;2.50;;;4.10;91.00;;;;;;5114142;28;20050;-74
2021/01/22 05:37:09;;;;;;;4.60;2.58;;;4.00;91.00;;;;;;5113431;28;20043;-74
2021/01/22 05:39:35;;;;;;;5.05;2.38;;;4.00;91.00;;;;;;5113852;28;20044;-74
2021/01/22 05:42:00;;;;;;;4.18;2.60;;;4.00;91.00;;;;;;5114018;28;20402;-75
2021/01/22 05:44:26;;;;;;;4.78;2.72;;;4.10;91.10;;;;;;5113830;28;20039;-74
2021/01/22 05:47:04;;;;;;;5.35;3.00;;;4.10;91.10;;;;;;5094081;28;20510;-76
2021/01/22 05:49:31;;;;;;;5.30;2.95;;;4.10;91.10;;;;;;5114260;28;20487;-76
2021/01/22 05:51:57;;;;;;;6.25;2.67;;;4.10;91.10;;;;;;5113784;28;20063;-76
2021/01/22 05:54:33;;;;;;;5.20;2.97;;;4.20;91.10;;;;;;5113592;28;20058;-73
2021/01/22 05:56:59;;;;;;;5.15;3.05;;;4.20;91.10;;;;;;5113693;28;21353;-76
2021/01/22 05:59:25;;;;;;;5.05;2.80;;;4.10;91.10;;;;;;5095248;28;20040;-76
2021/01/22 06:01:50;;;;;;;5.45;3.25;;;4.10;91.10;;;;;;5113696;28;20126;-74
2021/01/22 06:04:16;;;;;;;5.57;3.08;;;4.10;91.10;;;;;;5095255;28;20047;-74
2021/01/22 06:06:42;;;;;;;5.00;3.00;;;4.20;91.20;;;;;;5114101;28;20036;-76
2021/01/22 06:09:08;;;;;;;4.97;2.70;;;4.10;91.10;;;;;;5114231;28;20036;-76
2021/01/22 06:11:34;;;;;;;5.15;2.88;;;4.10;91.20;;;;;;5113652;28;20513;-77
2021/01/22 06:14:04;;;;;;;5.00;2.75;;;4.10;91.20;;;;;;5095751;28;20447;-74
2021/01/22 06:16:31;;;;;;;4.55;2.70;;;4.10;91.20;;;;;;5112419;28;20046;-76
2021/01/22 06:19:00;;;;;;;4.60;3.08;;;4.10;91.20;;;;;;5113394;28;20495;-74
2021/01/22 06:21:50;;;;;;;5.28;3.08;;;4.10;91.20;;;;;;5112563;28;20047;-75
2021/01/22 06:24:17;;;;;;;4.90;2.72;;;4.10;91.20;;;;;;5113784;28;20063;-74
2021/01/22 06:26:43;;;;;;;6.68;3.33;;;4.10;91.20;;;;;;5113130;28;20479;-76
2021/01/22 06:29:10;;;;;;;5.88;3.25;;;4.10;91.20;;;;;;5113641;28;20114;-77
2021/01/22 06:31:37;;;;;;;4.68;2.90;;;4.00;91.20;;;;;;5113525;28;20379;-75
2021/01/22 06:34:05;;;;;;;5.10;2.70;;;4.00;91.20;;;;;;5113251;28;20044;-75
2021/01/22 06:36:31;;;;;;;5.63;2.70;;;4.00;91.20;;;;;;5113193;28;20036;-76
2021/01/22 06:38:58;;;;;;;4.25;2.60;;;4.00;91.30;;;;;;5114002;28;20044;-76
2021/01/22 06:41:25;;;;;;;5.70;3.20;;;4.00;91.30;;;;;;5093182;28;20044;-76
2021/01/22 06:43:52;;;;;;;6.32;3.10;;;4.00;91.30;;;;;;5113654;28;20071;-76
2021/01/22 06:46:20;;;;;;;6.07;3.53;;;3.90;91.30;;;;;;5113165;28;20130;-76
2021/01/22 06:48:50;;;;;;;5.45;2.90;;;3.90;91.30;;;;;;5113077;28;20039;-74
2021/01/22 06:51:17;;;;;;;6.88;3.45;;;3.90;91.40;;;;;;5113069;28;20040;-74
2021/01/22 06:54:04;;;;;;;4.85;2.80;;;3.90;91.40;;;;;;5094864;28;20399;-75
2021/01/22 06:56:30;;;;;;;4.43;2.38;;;3.80;91.40;;;;;;5113046;28;20039;-75
2021/01/22 06:59:16;;;;;;;3.80;2.13;;;3.80;91.40;;;;;;5112975;28;20421;-74
2021/01/22 07:01:42;;;;;;;4.78;2.45;;;3.80;91.50;;;;;;5112693;28;20478;-74
2021/01/22 07:04:07;;;;;;;4.70;2.50;;;3.70;91.50;;;;;;5113232;28;20085;-74
2021/01/22 07:06:48;;;;;;;3.42;1.88;;;3.70;91.50;;;;;;5112019;28;20050;-74
2021/01/22 07:09:14;;;;;;;5.63;3.07;;;3.70;91.60;;;;;;5113041;28;20165;-74
2021/01/22 07:11:53;;;;;;;4.95;2.35;;;3.70;91.60;;;;;;5112611;28;20123;-75
2021/01/22 07:14:37;;;;;;;3.85;2.13;;;3.60;91.60;;;;;;5113096;28;20507;-75
2021/01/22 07:17:12;;;;;;;5.07;2.50;;;3.60;91.60;;;;;;5111158;28;20046;-74
2021/01/22 07:19:39;;;;;;;4.60;2.33;;;3.60;91.60;;;;;;5112203;28;20415;-75
2021/01/22 07:22:06;;;;;;;5.35;2.45;;;3.60;91.60;;;;;;5112313;28;20039;-75
2021/01/22 07:24:33;;;;;;;4.95;2.45;;;3.60;91.60;;;;;;5112473;28;20043;-74
2021/01/22 07:27:00;;;;;;;6.13;2.40;;;3.60;91.60;;;;;;5112321;28;20126;-73
2021/01/22 07:29:27;;;;;;;4.57;2.60;;;3.60;91.60;;;;;;5112831;28;20115;-74
2021/01/22 07:31:58;;;;;;;6.63;2.58;;;3.60;91.60;;;;;;5112307;28;20039;-74
2021/01/22 07:34:43;;;;;;;4.20;2.20;;;3.60;91.60;;;;;;5112734;28;20043;-76
2021/01/22 07:37:20;;;;;;;4.45;2.40;;;3.60;91.60;;;;;;5112183;28;20141;-74
2021/01/22 07:39:47;;;;;;;5.03;2.30;;;3.60;91.60;;;;;;5112299;28;20036;-75
2021/01/22 07:42:20;;;;;;;5.03;2.85;;;3.60;91.60;;;;;;5112629;28;20495;-75
2021/01/22 07:44:47;;;;;;;4.63;2.25;;;3.60;91.60;;;;;;5112088;28;20054;-75
2021/01/22 07:47:30;;;;;;;5.28;2.60;;;3.60;91.60;;;;;;5112651;28;20517;-74
2021/01/22 07:49:59;;;;;;;4.07;2.00;;;3.60;91.60;;;;;;5112414;28;20058;-74
2021/01/22 07:52:25;;;;;;;4.68;2.38;;;3.70;91.60;;;;;;5094055;28;20041;-74
2021/01/22 07:54:51;;;;;;;3.92;2.00;;;3.60;91.60;;;;;;5112124;28;20065;-75
2021/01/22 07:57:22;;;;;;;4.13;2.03;;;3.60;91.60;;;;;;5111946;28;20516;-75
2021/01/22 07:59:49;;;;;;;3.65;1.90;;;3.70;91.60;;;;;;5110695;28;20043;-75
2021/01/22 08:02:18;;;;;;;3.83;2.08;;;3.70;91.90;;;;;;5112030;28;20151;-74
2021/01/22 08:04:47;;;;;;;6.28;2.33;;;3.60;91.60;;;;;;5111817;28;20410;-74
2021/01/22 08:07:13;;;;;;;4.38;2.00;;;3.60;91.60;;;;;;5094053;28;20047;-75
2021/01/22 08:09:52;;;;;;;4.20;2.20;;;3.70;91.60;;;;;;5112124;28;20050;-74
2021/01/22 08:12:19;;;;;;;3.90;2.15;;;3.70;91.60;;;;;;5111662;28;20042;-77
2021/01/22 08:14:45;;;;;;;3.85;2.05;;;3.70;91.60;;;;;;5093566;28;20124;-77
2021/01/22 08:17:13;;;;;;;3.85;1.90;;;3.70;91.60;;;;;;5113520;28;20059;-75
2021/01/22 08:19:39;;;;;;;4.72;2.08;;;3.70;91.60;;;;;;5115363;28;20039;-73
2021/01/22 08:22:05;;;;;;;4.00;2.17;;;3.70;91.60;;;;;;5122918;28;20043;-74
2021/01/22 08:24:31;;;;;;;3.40;1.92;;;3.80;91.50;;;;;;5096931;28;20050;-75
2021/01/22 08:27:00;;;;;;;3.55;2.00;;;3.80;91.50;;;;;;5114832;28;20061;-75
2021/01/22 08:29:28;;;;;;;3.30;1.80;;;3.80;91.50;;;;;;5114840;28;20445;-75
2021/01/22 08:31:54;;;;;;;3.83;1.80;;;3.80;91.50;;;;;;5096879;28;20032;-74
2021/01/22 08:34:22;;;;;;;2.70;1.60;;;3.80;91.50;;;;;;5097450;28;20471;-74
2021/01/22 08:36:50;;;;;;;3.17;1.90;;;3.80;91.50;;;;;;5115043;28;20200;-74
2021/01/22 08:39:16;;;;;;;4.07;2.03;;;3.90;91.50;;;;;;5114912;28;20050;-75
2021/01/22 08:41:41;;;;;;;3.45;1.92;;;4.00;91.50;;;;;;5114671;28;20391;-75
2021/01/22 08:44:07;;;;;;;2.65;1.50;;;3.90;91.80;;;;;;5114845;28;20042;-75
2021/01/22 08:46:44;;;;;;;4.50;2.20;;;4.00;91.50;;;;;;5114735;28;20052;-75
2021/01/22 08:49:12;;;;;;;3.40;2.00;;;3.90;91.50;;;;;;5096672;28;20043;-75
2021/01/22 08:51:39;;;;;;;3.47;2.10;;;4.00;91.50;;;;;;5114922;28;20142;-75
2021/01/22 08:54:05;;;;;;;2.75;1.60;;;4.00;91.70;;;;;;5096655;28;20040;-75
2021/01/22 08:56:30;;;;;;;2.25;1.52;;;4.00;91.50;;;;;;5114851;28;20073;-75
2021/01/22 08:58:58;;;;;;;2.95;1.77;;;4.00;91.40;;;;;;5114968;28;20044;-75
2021/01/22 09:01:58;;;;;;;2.70;1.63;;;4.00;91.40;;;;;;5113540;28;20097;-75
2021/01/22 09:04:32;;;;;;;2.63;1.58;;;4.10;91.50;;;;;;5114730;28;20050;-75
2021/01/22 09:06:59;;;;;;;3.80;1.60;;;4.20;91.40;;;;;;5114274;28;20515;-75
2021/01/22 09:09:40;;;;;;;3.38;1.83;;;4.10;91.40;;;;;;5114699;28;20525;-76
2021/01/22 09:12:10;;;;;;;2.58;1.30;;;4.20;91.40;;;;;;5114609;28;20127;-76
2021/01/22 09:14:49;;;;;;;2.63;1.50;;;4.20;91.40;;;;;;5114460;28;20040;-76
2021/01/22 09:17:38;;;;;;;3.65;1.48;;;4.20;91.40;;;;;;5114842;28;20039;-76
2021/01/22 09:20:08;;;;;;;2.45;1.40;;;4.20;91.40;;;;;;5114457;28;20048;-76
2021/01/22 09:22:34;;;;;;;2.97;1.50;;;4.20;91.40;;;;;;5099901;28;20495;-75
2021/01/22 09:25:03;;;;;;;3.08;1.40;;;4.20;91.40;;;;;;5106027;28;20047;-76
2021/01/22 09:27:29;;;;;;;3.13;1.65;;;4.30;91.40;;;;;;5114417;28;20039;-76
2021/01/22 09:29:55;;;;;;;4.35;1.88;;;4.30;91.30;;;;;;5095745;28;20040;-77
2021/01/22 09:32:21;;;;;;;3.85;1.95;;;4.40;91.30;;;;;;5114670;28;20043;-75
2021/01/22 09:34:47;;;;;;;3.20;1.73;;;4.40;91.30;;;;;;5095062;28;20514;-77
2021/01/22 09:37:12;;;;;;;4.55;2.00;;;4.40;91.30;;;;;;5100329;28;20433;-80
2021/01/22 09:39:38;;;;;;;4.55;1.90;;;4.50;91.30;;;;;;5114701;28;20035;-76
2021/01/22 09:42:04;;;;;;;3.38;1.48;;;4.50;91.20;;;;;;5114473;28;20049;-80
2021/01/22 09:44:30;;;;;;;3.85;1.67;;;4.40;91.20;;;;;;5097062;28;20027;-79
2021/01/22 09:46:56;;;;;;;2.88;1.60;;;4.50;91.20;;;;;;5094189;28;20097;-77
2021/01/22 09:49:22;;;;;;;4.07;1.95;;;4.50;91.20;;;;;;5115928;28;20047;-78
2021/01/22 09:51:48;;;;;;;2.75;1.60;;;4.50;91.20;;;;;;5098160;28;20062;-77
2021/01/22 09:54:14;;;;;;;2.85;1.52;;;4.50;91.20;;;;;;5114451;28;20499;-80
2021/01/22 09:56:40;;;;;;;2.60;1.70;;;4.50;91.20;;;;;;5097308;28;20043;-80
2021/01/22 09:59:07;;;;;;;3.45;2.13;;;4.50;91.30;;;;;;5062611;28;20067;-78
2021/01/22 10:01:34;;;;;;;4.55;2.10;;;4.60;91.30;;;;;;5081169;28;20406;-81
2021/01/22 10:04:01;;;;;;;4.15;2.15;;;4.70;91.30;;;;;;5099675;28;20123;-77
2021/01/22 10:06:27;;;;;;;2.95;1.80;;;4.60;91.20;;;;;;5098915;28;20047;-78
2021/01/22 10:08:56;;;;;;;3.03;1.67;;;4.60;91.20;;;;;;5116246;28;20490;-80
2021/01/22 10:11:23;;;;;;;2.58;1.48;;;4.70;91.20;;;;;;5062475;28;20386;-76
2021/01/22 10:13:53;;;;;;;2.60;1.35;;;4.70;91.20;;;;;;5062501;28;20046;-78
2021/01/22 10:16:25;;;;;;;2.00;1.35;;;4.70;91.10;;;;;;5113652;28;20053;-81
2021/01/22 10:18:52;;;;;;;;;;;4.80;91.10;;;;;;5063284;28;20047;-77
2021/01/22 10:25:07;;;;;;;3.40;1.60;;;4.90;91.00;;;;;;5040003;28;20057;-82
2021/01/22 10:27:33;;;;;;;3.15;1.70;;;5.00;91.00;;;;;;5014539;28;20042;-76
2021/01/22 10:29:58;;;;;;;3.53;1.90;;;5.00;90.90;;;;;;4997842;28;20034;-77
2021/01/22 10:32:24;;;;;;;3.20;1.65;;;5.10;90.90;;;;;;4997841;28;20500;-79
2021/01/22 10:34:53;;;;;;;4.03;2.08;;;5.10;90.80;;;;;;4998471;28;20103;-81
2021/01/22 10:37:21;;;;;;;5.30;1.95;;;5.20;90.80;;;;;;4997210;28;20045;-79
2021/01/22 10:39:47;;;;;;;4.68;2.05;;;5.20;90.80;;;;;;4996152;28;20381;-78
2021/01/22 10:42:13;;;;;;;3.67;1.67;;;5.30;90.80;;;;;;5012655;28;20136;-78
2021/01/22 10:44:38;;;;;;;3.80;2.15;;;5.40;90.90;;;;;;5030513;28;20108;-75
2021/01/22 10:47:07;;;;;;;3.53;1.77;;;5.40;90.90;;;;;;5030744;28;20053;-80
2021/01/22 10:49:32;;;;;;;3.05;1.70;;;5.50;90.80;;;;;;5014490;28;20044;-78
2021/01/22 10:51:58;;;;;;;3.22;1.65;;;5.70;90.80;;;;;;5014711;28;20139;-81
2021/01/22 10:54:24;;;;;;;3.65;1.77;;;5.70;90.70;;;;;;4994975;28;20037;-79
2021/01/22 10:56:50;;;;;;;3.90;1.75;;;5.80;90.60;;;;;;5092268;28;20444;-79
2021/01/22 10:59:16;;;;;;;2.67;1.50;;;6.00;90.60;;;;;;5094838;28;20078;-79
2021/01/22 11:01:42;;;;;;;3.60;1.65;;;6.00;90.50;;;;;;5094515;28;20139;-80
2021/01/22 11:04:07;;;;;;;3.13;1.45;;;6.00;90.40;;;;;;5113553;28;20471;-78
2021/01/22 11:06:33;;;;;;;2.67;1.63;;;6.10;90.40;;;;;;5113542;28;20123;-80
2021/01/22 11:09:01;;;;;;;2.92;1.40;;;6.20;90.40;;;;;;5094699;28;20044;-79
2021/01/22 11:11:26;;;;;;;3.05;1.73;;;6.30;90.40;;;;;;5115286;28;20047;-76
2021/01/22 11:13:52;;;;;;;3.58;1.50;;;6.40;90.30;;;;;;5112790;28;20035;-79
2021/01/22 11:16:21;;;;;;;2.85;1.33;;;6.30;90.30;;;;;;5112515;28;20499;-79
2021/01/22 11:18:47;;;;;;;2.80;1.27;;;6.30;90.40;;;;;;5092621;28;20376;-79
2021/01/22 11:21:13;;;;;;;2.90;1.15;;;6.20;90.40;;;;;;5112685;28;20112;-79
2021/01/22 11:23:38;;;;;;;3.35;1.60;;;6.20;90.40;;;;;;5112757;28;20066;-79
2021/01/22 11:26:04;;;;;;;2.92;1.45;;;6.20;90.40;;;;;;5112902;28;20049;-79
2021/01/22 11:28:32;;;;;;;3.67;1.40;;;6.10;90.50;;;;;;5077739;28;20051;-79
2021/01/22 11:30:58;;;;;;;2.20;1.20;;;6.10;90.60;;;;;;5093788;28;20044;-80
2021/01/22 11:33:24;;;;;;;4.20;1.40;;;6.10;90.60;;;;;;5094350;28;20093;-79
2021/01/22 11:35:50;;;;;;;2.72;1.50;;;6.20;90.60;;;;;;5092216;28;20441;-79
2021/01/22 11:38:15;;;;;;;1.92;1.10;;;6.20;90.60;;;;;;5112492;28;20039;-79
2021/01/22 11:40:41;;;;;;;2.42;1.42;;;6.20;90.60;;;;;;5094620;28;20043;-79
2021/01/22 11:43:07;;;;;;;2.25;1.20;;;6.30;90.50;;;;;;5094866;28;20491;-79
2021/01/22 11:45:32;;;;;;;2.28;1.20;;;6.30;90.70;;;;;;5094456;28;20040;-78
2021/01/22 11:47:58;;;;;;;2.25;1.17;;;6.40;90.40;;;;;;5094397;28;20406;-78
2021/01/22 11:50:24;;;;;;;2.50;1.30;;;6.30;90.40;;;;;;5113436;28;20039;-77
2021/01/22 11:52:49;;;;;;;2.00;1.25;;;6.40;90.40;;;;;;5115687;28;20031;-77
2021/01/22 11:55:15;;;;;;;1.88;1.20;;;6.40;90.40;;;;;;5116394;28;20406;-77
2021/01/22 11:57:41;;;;;;;3.70;1.20;;;6.50;90.30;;;;;;5116479;28;20092;-78
2021/01/22 12:00:07;;;;;;;3.15;1.40;;;6.70;90.30;;;;;;5116339;28;20075;-77
2021/01/22 12:02:33;;;;;;;1.98;1.00;;;6.70;90.20;;;;;;5116220;28;20400;-77
2021/01/22 12:04:58;;;;;;;2.05;1.30;;;6.80;90.20;;;;;;5116626;28;20042;-74
2021/01/22 12:07:24;;;;;;;2.97;1.27;;;6.90;90.10;;;;;;5115944;28;20062;-77
2021/01/22 12:09:50;;;;;;;2.75;1.17;;;7.00;90.10;;;;;;5097972;28;20046;-77
2021/01/22 12:12:15;;;;;;;2.22;1.30;;;7.10;90.00;;;;;;5098178;28;20042;-77
2021/01/22 12:14:42;;;;;;;4.95;1.40;;;7.20;89.80;;;;;;5115852;28;20096;-77
2021/01/22 12:17:08;;;;;;;2.90;1.17;;;7.30;89.70;;;;;;5115684;28;20499;-77
2021/01/22 12:19:35;;;;;;;4.78;1.25;;;7.40;89.40;;;;;;5115998;28;20116;-77
2021/01/22 12:22:00;;;;;;;1.85;1.20;;;7.40;89.20;;;;;;5096367;28;20427;-76
2021/01/22 12:24:26;;;;;;;5.47;1.80;;;7.50;89.30;;;;;;5115772;28;20035;-76
2021/01/22 12:26:52;;;;;;;2.83;1.42;;;7.40;88.90;;;;;;5115367;28;20441;-76
2021/01/22 12:29:17;;;;;;;2.42;1.55;;;7.30;89.00;;;;;;5097283;28;20130;-76
2021/01/22 12:31:43;;;;;;;3.95;1.60;;;7.40;89.40;;;;;;5115382;28;20040;-76
2021/01/22 12:34:09;;;;;;;3.45;1.60;;;7.40;89.10;;;;;;5115337;28;20035;-76
2021/01/22 12:36:35;;;;;;;3.88;1.65;;;7.40;89.10;;;;;;5080289;28;20051;-76
2021/01/22 12:39:02;;;;;;;2.78;1.60;;;7.50;89.10;;;;;;5096977;28;20048;-77
2021/01/22 12:41:28;;;;;;;2.67;1.30;;;7.30;88.80;;;;;;5115274;28;20063;-75
2021/01/22 12:43:54;;;;;;;2.65;1.20;;;7.30;89.00;;;;;;5115047;28;20036;-77
2021/01/22 12:46:20;;;;;;;2.83;1.10;;;7.30;89.30;;;;;;5115136;28;20441;-74
2021/01/22 12:48:45;;;;;;;4.10;1.50;;;7.30;89.30;;;;;;5114942;28;20028;-77
2021/01/22 12:51:11;;;;;;;1.60;1.25;;;7.20;89.20;;;;;;5114939;28;20035;-77
2021/01/22 12:53:37;;;;;;;2.90;1.23;;;7.20;89.40;;;;;;5096116;28;20131;-77
2021/01/22 12:56:02;;;;;;;2.85;1.30;;;7.10;89.30;;;;;;5095846;28;20075;-76
2021/01/22 12:58:28;;;;;;;2.00;1.00;;;7.20;89.30;;;;;;5096360;28;20044;-76
2021/01/22 13:00:54;;;;;;;2.22;1.17;;;7.20;89.30;;;;;;5114951;28;20028;-77
2021/01/22 13:03:19;;;;;;;2.72;1.00;;;7.20;89.20;;;;;;5095323;28;20399;-79
2021/01/22 13:05:48;;;;;;;2.95;1.33;;;7.20;89.10;;;;;;5114316;28;20040;-78